Terminal Aerodrome Forecast
Issued by NWS Lake Charles, LA

Home | Current Version | Previous Version | Text Only | Print | Product List | Glossary On
Versions: 1 2 3 4 5 6 7 8 9 10 11 12 13
000
FTUS44 KLCH 210500
TAFLCH
TAF
KLCH 210520Z 2106/2206 04004KT P6SM SCT250
     FM211600 06010KT P6SM SCT250
     FM212300 07005KT P6SM SCT250=

USA.gov is the U.S. government's official web portal to all federal, state and local government web resources and services.